Time;durP1;ratioP1;P1;durP2;ratioP2;P2;SDS_P1;SDS_P2;PMS_P1;PMS_P2;Temp;Humidity;BMP_temperature;BMP_pressure;BME280_temperature;BME280_humidity;BME280_pressure;Samples;Min_cycle;Max_cycle;Signal;HPM_P1;HPM_P2
2023/11/17 00:01:34;;;;;;;10.50;7.20;;;;;;;4.69;94.64;95908.50;108741;1269;22584;-80
2023/11/17 00:04:05;;;;;;;11.70;7.80;;;;;;;4.68;94.70;95905.04;108745;1266;22528;-79
2023/11/17 00:06:36;;;;;;;11.00;6.80;;;;;;;4.68;95.11;95903.93;108761;1272;22542;-79
2023/11/17 00:09:10;;;;;;;9.10;5.70;;;;;;;4.68;95.17;95902.20;108735;1266;22528;-80
2023/11/17 00:11:41;;;;;;;8.70;5.40;;;;;;;4.67;95.31;95902.15;108723;1272;22531;-80
2023/11/17 00:14:13;;;;;;;11.20;5.60;;;;;;;4.67;95.45;95901.36;108713;1272;25407;-80
2023/11/17 00:16:44;;;;;;;8.90;5.90;;;;;;;4.68;95.70;95893.48;108709;1266;22526;-80
2023/11/17 00:19:15;;;;;;;10.50;5.50;;;;;;;4.70;95.77;95885.09;108737;1272;24209;-80
2023/11/17 00:21:46;;;;;;;6.50;4.30;;;;;;;4.73;95.88;95876.69;108680;1272;23909;-80
2023/11/17 00:24:17;;;;;;;9.70;5.30;;;;;;;4.74;95.86;95870.27;108741;1272;25482;-80
2023/11/17 00:26:48;;;;;;;11.50;6.30;;;;;;;4.70;95.91;95874.16;108770;1272;23193;-80
2023/11/17 00:29:19;;;;;;;10.50;7.10;;;;;;;4.67;96.03;95876.16;108740;1272;23856;-80
2023/11/17 00:31:52;;;;;;;10.10;6.30;;;;;;;4.63;96.22;95870.56;108769;1272;22570;-80
2023/11/17 00:34:24;;;;;;;8.50;6.10;;;;;;;4.60;96.46;95863.05;108764;1269;22517;-80
2023/11/17 00:36:58;;;;;;;9.00;6.80;;;;;;;4.59;96.47;95861.36;108774;1272;22521;-80
2023/11/17 00:39:29;;;;;;;9.70;6.20;;;;;;;4.55;96.68;95865.98;108774;1272;24493;-79
2023/11/17 00:42:00;;;;;;;10.50;5.60;;;;;;;4.55;96.74;95864.98;108737;1272;22554;-80
2023/11/17 00:44:31;;;;;;;11.00;6.70;;;;;;;4.52;96.53;95862.88;108752;1266;22527;-80
2023/11/17 00:47:04;;;;;;;11.20;7.90;;;;;;;4.51;96.87;95860.66;108750;1272;22544;-80
2023/11/17 00:49:38;;;;;;;5.80;3.20;;;;;;;4.51;97.13;95857.88;108783;1272;22521;-79
2023/11/17 00:52:09;;;;;;;9.30;7.00;;;;;;;4.59;97.24;95855.17;108767;1272;22756;-80
2023/11/17 00:54:43;;;;;;;8.70;6.20;;;;;;;4.63;97.34;95851.19;108784;1272;22650;-80
2023/11/17 00:57:16;;;;;;;11.40;7.80;;;;;;;4.63;97.74;95851.18;108735;1266;23298;-80
2023/11/17 00:59:50;;;;;;;10.00;5.50;;;;;;;4.66;97.88;95847.23;108729;1272;22530;-80
2023/11/17 01:02:20;;;;;;;9.20;7.50;;;;;;;4.69;97.90;95842.71;108750;1272;22532;-79
2023/11/17 01:04:51;;;;;;;8.50;5.50;;;;;;;4.73;97.97;95842.92;108690;1272;22522;-80
2023/11/17 01:07:22;;;;;;;7.60;4.10;;;;;;;4.75;98.08;95840.14;108729;1272;22523;-80
2023/11/17 01:09:53;;;;;;;5.40;3.20;;;;;;;4.78;98.16;95838.16;108753;1266;22708;-80
2023/11/17 01:12:24;;;;;;;4.80;3.10;;;;;;;4.80;98.23;95833.09;108774;1266;22532;-80
2023/11/17 01:14:55;;;;;;;6.90;3.20;;;;;;;4.82;98.45;95829.45;108734;1265;22581;-80
2023/11/17 01:17:27;;;;;;;6.10;4.20;;;;;;;4.85;98.62;95824.10;108729;1266;22584;-79
2023/11/17 01:19:58;;;;;;;8.00;4.50;;;;;;;4.84;98.59;95821.15;108717;1272;22528;-79
2023/11/17 01:22:29;;;;;;;6.50;4.40;;;;;;;4.84;98.67;95819.52;108701;1266;24232;-80
2023/11/17 01:25:00;;;;;;;6.00;3.10;;;;;;;4.85;98.71;95812.17;108744;1272;22521;-80
2023/11/17 01:27:32;;;;;;;5.20;2.60;;;;;;;4.86;99.00;95812.59;108773;1262;22620;-79
2023/11/17 01:30:08;;;;;;;4.30;2.80;;;;;;;4.88;98.99;95809.91;108754;1272;23651;-79
2023/11/17 01:32:39;;;;;;;6.80;4.50;;;;;;;4.84;98.82;95806.14;108740;1264;22584;-80
2023/11/17 01:35:11;;;;;;;7.90;4.80;;;;;;;4.82;99.09;95805.24;108775;1266;22553;-80
2023/11/17 01:37:42;;;;;;;6.00;4.40;;;;;;;4.83;99.16;95802.35;108724;1272;22523;-80
2023/11/17 01:40:17;;;;;;;5.50;3.80;;;;;;;4.81;99.26;95798.46;108769;1272;23141;-80
2023/11/17 01:42:49;;;;;;;4.40;3.80;;;;;;;4.83;99.49;95793.00;108745;1265;22684;-80
2023/11/17 01:45:21;;;;;;;5.40;4.20;;;;;;;4.85;99.59;95787.85;108727;1272;22533;-80
2023/11/17 01:47:52;;;;;;;5.50;4.10;;;;;;;4.88;99.80;95780.81;108725;1266;24896;-80
2023/11/17 01:50:25;;;;;;;7.40;4.50;;;;;;;4.90;99.60;95779.44;108696;1272;22632;-80
2023/11/17 01:52:57;;;;;;;4.60;3.70;;;;;;;4.91;99.76;95774.29;108771;1269;22551;-80
2023/11/17 01:55:28;;;;;;;7.00;4.20;;;;;;;4.91;99.67;95772.98;108741;1266;22520;-80
2023/11/17 01:58:02;;;;;;;5.10;4.00;;;;;;;4.91;99.75;95763.58;108812;1272;22523;-80
2023/11/17 02:00:33;;;;;;;3.90;3.10;;;;;;;4.92;99.75;95763.68;108780;1266;22520;-80
2023/11/17 02:03:06;;;;;;;5.20;3.50;;;;;;;4.93;99.90;95757.51;108755;1272;22930;-80
2023/11/17 02:05:38;;;;;;;5.40;3.50;;;;;;;4.94;99.99;95756.30;108704;1272;25461;-80
2023/11/17 02:08:21;;;;;;;5.20;3.40;;;;;;;4.93;99.85;95755.45;108728;1272;22551;-80
2023/11/17 02:11:02;;;;;;;5.20;3.60;;;;;;;4.90;99.69;95754.65;108670;1272;25329;-80
2023/11/17 02:13:39;;;;;;;6.20;4.20;;;;;;;4.85;99.81;95752.24;108764;1272;25412;-80
2023/11/17 02:16:17;;;;;;;5.70;3.80;;;;;;;4.86;100.00;95751.77;108802;1272;22515;-80
2023/11/17 02:18:50;;;;;;;5.30;3.10;;;;;;;4.87;99.97;95751.55;108749;1272;22556;-80
2023/11/17 02:21:31;;;;;;;3.10;2.40;;;;;;;4.84;99.99;95744.42;108726;1272;22595;-80
2023/11/17 02:24:06;;;;;;;3.10;2.60;;;;;;;4.83;100.00;95741.69;108737;1266;22615;-80
2023/11/17 02:26:48;;;;;;;4.20;2.80;;;;;;;4.84;100.00;95740.85;108758;1272;22634;-80
2023/11/17 02:29:28;;;;;;;2.80;2.20;;;;;;;4.87;100.00;95740.06;108767;1269;22548;-80
2023/11/17 02:32:00;;;;;;;4.30;2.50;;;;;;;4.90;100.00;95737.80;108785;1272;24284;-80
2023/11/17 02:34:32;;;;;;;42.90;5.80;;;;;;;4.90;100.00;95735.58;108723;1272;24290;-80
2023/11/17 02:37:05;;;;;;;5.40;3.10;;;;;;;4.86;100.00;95730.60;108741;1272;22541;-80
2023/11/17 02:39:38;;;;;;;3.70;2.80;;;;;;;4.86;100.00;95722.45;108642;1272;22865;-80
2023/11/17 02:42:11;;;;;;;4.90;2.80;;;;;;;4.87;100.00;95718.89;108751;1272;22520;-80
2023/11/17 02:44:44;;;;;;;4.20;3.00;;;;;;;4.89;100.00;95721.98;108655;1266;22580;-80
2023/11/17 02:47:20;;;;;;;5.30;3.00;;;;;;;4.88;100.00;95717.63;108695;1269;22619;-80
2023/11/17 02:49:58;;;;;;;3.80;2.80;;;;;;;4.84;100.00;95715.38;108723;1257;22519;-80
2023/11/17 02:52:42;;;;;;;3.20;2.60;;;;;;;4.81;100.00;95706.89;108728;1272;22592;-80
2023/11/17 02:55:16;;;;;;;4.40;2.80;;;;;;;4.82;100.00;95700.41;108713;1267;22572;-80
2023/11/17 02:57:48;;;;;;;4.30;2.70;;;;;;;4.84;100.00;95699.52;108747;1269;22521;-80
2023/11/17 03:00:22;;;;;;;3.30;2.00;;;;;;;4.85;100.00;95698.89;108643;1272;22567;-80
2023/11/17 03:02:57;;;;;;;1.50;1.40;;;;;;;4.85;100.00;95696.48;108739;1268;22522;-80
2023/11/17 03:05:28;;;;;;;1.50;1.40;;;;;;;4.83;100.00;95695.90;108729;1267;24317;-80
2023/11/17 03:08:00;;;;;;;2.20;1.50;;;;;;;4.81;100.00;95693.38;108752;1267;22698;-80
2023/11/17 03:10:34;;;;;;;1.30;1.20;;;;;;;4.81;100.00;95694.64;108791;1272;22595;-80
2023/11/17 03:13:06;;;;;;;4.10;1.30;;;;;;;4.81;100.00;95691.86;108763;1272;22533;-80
2023/11/17 03:15:38;;;;;;;1.70;1.00;;;;;;;4.82;100.00;95695.38;108707;1272;22569;-80
2023/11/17 03:18:09;;;;;;;1.80;1.00;;;;;;;4.81;100.00;95696.33;108775;1269;22583;-80
2023/11/17 03:20:44;;;;;;;1.80;1.50;;;;;;;4.82;100.00;95693.16;108727;1269;25344;-79
2023/11/17 03:23:16;;;;;;;1.60;1.10;;;;;;;4.83;100.00;95691.55;108734;1272;25459;-80
2023/11/17 03:25:52;;;;;;;1.00;0.90;;;;;;;4.83;100.00;95693.11;108738;1269;23346;-80
2023/11/17 03:28:23;;;;;;;2.60;1.40;;;;;;;4.85;100.00;95694.85;108746;1266;23497;-80
2023/11/17 03:30:55;;;;;;;2.30;1.30;;;;;;;4.86;100.00;95692.84;108714;1272;22562;-80
2023/11/17 03:33:30;;;;;;;2.20;1.40;;;;;;;4.87;100.00;95690.27;108757;1272;22528;-80
2023/11/17 03:36:03;;;;;;;1.40;0.90;;;;;;;4.87;100.00;95691.38;108754;1269;22573;-79
2023/11/17 03:38:35;;;;;;;2.80;1.00;;;;;;;4.86;100.00;95695.63;108763;1272;22573;-79
2023/11/17 03:41:06;;;;;;;1.20;1.00;;;;;;;4.86;100.00;95699.36;108748;1272;22629;-80
2023/11/17 03:43:37;;;;;;;1.70;1.10;;;;;;;4.84;100.00;95701.73;108747;1272;22528;-80
2023/11/17 03:46:08;;;;;;;2.00;1.10;;;;;;;4.80;100.00;95696.59;108745;1266;22556;-79
2023/11/17 03:48:39;;;;;;;3.00;1.60;;;;;;;4.79;100.00;95700.38;108754;1272;24660;-80
2023/11/17 03:51:11;;;;;;;1.20;0.90;;;;;;;4.79;100.00;95693.96;108750;1272;22520;-80
2023/11/17 03:53:43;;;;;;;1.50;0.90;;;;;;;4.73;100.00;95694.42;108713;1266;22515;-80
2023/11/17 03:56:14;;;;;;;2.30;0.80;;;;;;;4.66;100.00;95693.64;108728;1272;25252;-79
2023/11/17 03:58:45;;;;;;;1.60;0.80;;;;;;;4.62;100.00;95688.80;108752;1272;25350;-80
2023/11/17 04:01:16;;;;;;;1.10;0.90;;;;;;;4.58;100.00;95686.02;108701;1266;22566;-79
2023/11/17 04:03:49;;;;;;;1.50;1.00;;;;;;;4.55;100.00;95686.92;108706;1266;22520;-79
2023/11/17 04:06:20;;;;;;;2.70;1.20;;;;;;;4.52;100.00;95686.04;108769;1272;26591;-80
2023/11/17 04:08:52;;;;;;;2.50;1.60;;;;;;;4.51;100.00;95679.73;108727;1269;22640;-80
2023/11/17 04:11:23;;;;;;;4.40;1.50;;;;;;;4.50;100.00;95676.15;108701;1257;22520;-79
2023/11/17 04:13:54;;;;;;;2.20;1.50;;;;;;;4.52;100.00;95675.02;108695;1272;22734;-79
2023/11/17 04:16:29;;;;;;;3.00;1.70;;;;;;;4.53;100.00;95672.80;108753;1272;25549;-79
2023/11/17 04:19:00;;;;;;;3.40;2.50;;;;;;;4.53;100.00;95673.45;108778;1250;22989;-80
2023/11/17 04:21:31;;;;;;;3.30;2.50;;;;;;;4.53;100.00;95670.13;108711;1266;22532;-80
2023/11/17 04:24:02;;;;;;;3.60;2.40;;;;;;;4.53;100.00;95670.86;108760;1269;22536;-80
2023/11/17 04:26:34;;;;;;;3.20;1.90;;;;;;;4.54;100.00;95670.86;108705;1272;25577;-79
2023/11/17 04:29:07;;;;;;;4.00;1.40;;;;;;;4.54;100.00;95672.54;108777;1272;23497;-79
2023/11/17 04:31:39;;;;;;;2.40;1.30;;;;;;;4.54;100.00;95674.96;108718;1272;23642;-79
2023/11/17 04:34:11;;;;;;;1.80;0.90;;;;;;;4.54;100.00;95675.33;108748;1272;24226;-80
2023/11/17 04:36:44;;;;;;;1.90;0.90;;;;;;;4.54;100.00;95671.39;108723;1266;22525;-80
2023/11/17 04:39:18;;;;;;;1.70;0.70;;;;;;;4.53;100.00;95671.65;108721;1272;22630;-80
2023/11/17 04:41:49;;;;;;;1.80;0.70;;;;;;;4.52;100.00;95674.90;108706;1272;22522;-80
2023/11/17 04:44:20;;;;;;;2.30;1.10;;;;;;;4.56;100.00;95673.95;108732;1266;22537;-79
2023/11/17 04:46:51;;;;;;;1.50;1.10;;;;;;;4.59;100.00;95674.20;108728;1272;22525;-80
2023/11/17 04:49:23;;;;;;;3.20;1.20;;;;;;;4.62;100.00;95676.52;108727;1272;22724;-80
2023/11/17 04:51:54;;;;;;;1.70;0.80;;;;;;;4.64;100.00;95678.41;108689;1272;22618;-80
2023/11/17 04:54:27;;;;;;;2.20;0.90;;;;;;;4.63;100.00;95677.20;108751;1272;22681;-80
2023/11/17 04:56:58;;;;;;;1.20;0.90;;;;;;;4.61;100.00;95673.98;108746;1272;25358;-80
2023/11/17 04:59:29;;;;;;;1.80;0.80;;;;;;;4.63;100.00;95672.36;108685;1272;25555;-79
2023/11/17 05:02:00;;;;;;;1.30;1.20;;;;;;;4.63;100.00;95672.63;108756;1269;22539;-80
2023/11/17 05:04:31;;;;;;;1.80;1.00;;;;;;;4.62;100.00;95671.05;108734;1267;22531;-79
2023/11/17 05:07:02;;;;;;;2.50;0.80;;;;;;;4.59;100.00;95669.27;108788;1266;22700;-80
2023/11/17 05:09:33;;;;;;;2.60;0.90;;;;;;;4.56;100.00;95669.34;108701;1271;26371;-79
2023/11/17 05:12:07;;;;;;;2.10;1.10;;;;;;;4.53;100.00;95673.91;108687;1269;22533;-79
2023/11/17 05:14:38;;;;;;;4.30;2.60;;;;;;;4.55;100.00;95672.48;108758;1272;24231;-80
2023/11/17 05:17:15;;;;;;;3.20;1.80;;;;;;;4.58;100.00;95669.33;108752;1271;23488;-80
2023/11/17 05:19:46;;;;;;;3.30;2.20;;;;;;;4.60;100.00;95667.54;108691;1272;25514;-80
2023/11/17 05:22:17;;;;;;;4.50;2.40;;;;;;;4.60;100.00;95669.43;108694;1267;22859;-80
2023/11/17 05:24:48;;;;;;;2.50;2.10;;;;;;;4.59;100.00;95672.38;108709;1269;25334;-79
2023/11/17 05:27:19;;;;;;;2.10;1.90;;;;;;;4.58;100.00;95674.37;108743;1272;22710;-80
2023/11/17 05:29:50;;;;;;;2.60;1.60;;;;;;;4.56;100.00;95671.77;108707;1272;22557;-80
2023/11/17 05:32:25;;;;;;;1.30;1.00;;;;;;;4.54;100.00;95669.24;108751;1269;22726;-80
2023/11/17 05:34:57;;;;;;;1.90;1.20;;;;;;;4.54;100.00;95670.08;108752;1272;22524;-80
2023/11/17 05:37:28;;;;;;;1.20;1.10;;;;;;;4.53;100.00;95667.77;108757;1270;24451;-79
2023/11/17 05:39:59;;;;;;;0.60;0.60;;;;;;;4.50;100.00;95666.23;108742;1272;22510;-79
2023/11/17 05:42:33;;;;;;;0.90;0.60;;;;;;;4.45;100.00;95666.12;108725;1272;24221;-80
2023/11/17 05:45:06;;;;;;;0.50;0.40;;;;;;;4.40;100.00;95666.13;108782;1272;22560;-80
2023/11/17 05:47:37;;;;;;;2.60;1.00;;;;;;;4.36;100.00;95665.60;108758;1272;25435;-80
2023/11/17 05:50:11;;;;;;;3.40;1.40;;;;;;;4.33;100.00;95669.46;108710;1272;22535;-79
2023/11/17 05:52:43;;;;;;;1.30;0.60;;;;;;;4.31;100.00;95670.16;108829;1266;22617;-80
2023/11/17 05:55:17;;;;;;;1.00;0.70;;;;;;;4.29;100.00;95674.10;108736;1272;22603;-80
2023/11/17 05:57:50;;;;;;;3.30;1.50;;;;;;;4.29;100.00;95674.88;108728;1263;25588;-80
2023/11/17 06:00:21;;;;;;;8.20;3.30;;;;;;;4.28;100.00;95674.04;108822;1269;22518;-80
2023/11/17 06:02:53;;;;;;;6.80;2.50;;;;;;;4.25;100.00;95675.04;108760;1272;24408;-80
2023/11/17 06:05:25;;;;;;;3.60;1.50;;;;;;;4.25;100.00;95678.35;108754;1272;22574;-80
2023/11/17 06:07:56;;;;;;;8.40;3.50;;;;;;;4.26;100.00;95679.92;108724;1272;22952;-80
2023/11/17 06:10:27;;;;;;;3.30;1.80;;;;;;;4.24;100.00;95680.34;108690;1272;22556;-80
2023/11/17 06:12:58;;;;;;;1.60;0.80;;;;;;;4.24;100.00;95683.39;108761;1272;22543;-80
2023/11/17 06:15:32;;;;;;;5.40;2.00;;;;;;;4.27;100.00;95679.66;108705;1272;24243;-80
2023/11/17 06:18:07;;;;;;;2.00;1.10;;;;;;;4.30;100.00;95680.70;108752;1272;22521;-80
2023/11/17 06:20:38;;;;;;;2.00;1.40;;;;;;;4.33;100.00;95679.02;108658;1272;22540;-80
2023/11/17 06:23:09;;;;;;;2.90;1.20;;;;;;;4.33;100.00;95679.96;108723;1270;25656;-80
2023/11/17 06:25:40;;;;;;;2.60;1.60;;;;;;;4.33;100.00;95684.59;108669;1266;22550;-79
2023/11/17 06:28:12;;;;;;;3.20;1.10;;;;;;;4.34;100.00;95685.95;108750;1270;22527;-80
2023/11/17 06:30:44;;;;;;;1.70;1.10;;;;;;;4.34;100.00;95686.27;108672;1265;22553;-80
2023/11/17 06:33:15;;;;;;;2.70;1.40;;;;;;;4.34;100.00;95687.79;108722;1272;22539;-80
2023/11/17 06:35:49;;;;;;;3.70;1.80;;;;;;;4.35;100.00;95688.10;108717;1265;22537;-80
2023/11/17 06:38:20;;;;;;;3.00;1.40;;;;;;;4.36;100.00;95688.95;108721;1272;24268;-80
2023/11/17 06:40:52;;;;;;;2.60;1.60;;;;;;;4.36;100.00;95693.05;108657;1270;22534;-79
2023/11/17 06:43:22;;;;;;;5.80;2.90;;;;;;;4.37;100.00;95696.57;108747;1270;24218;-80
2023/11/17 06:45:53;;;;;;;10.50;5.10;;;;;;;4.38;100.00;95693.16;108745;1272;22548;-80
2023/11/17 06:48:27;;;;;;;9.70;5.00;;;;;;;4.39;100.00;95697.52;108750;1272;22535;-80
2023/11/17 06:50:58;;;;;;;7.10;4.00;;;;;;;4.42;100.00;95699.25;108709;1266;22519;-80
2023/11/17 06:53:32;;;;;;;10.40;5.50;;;;;;;4.43;100.00;95705.02;108669;1269;22521;-80
2023/11/17 06:56:06;;;;;;;10.60;4.60;;;;;;;4.44;100.00;95706.95;108758;1272;22532;-80
2023/11/17 06:58:37;;;;;;;11.10;5.50;;;;;;;4.46;100.00;95712.73;108775;1272;22594;-80
2023/11/17 07:01:09;;;;;;;10.40;5.90;;;;;;;4.47;100.00;95714.56;108737;1272;22618;-80
2023/11/17 07:03:42;;;;;;;7.90;4.50;;;;;;;4.49;100.00;95714.52;108750;1268;22982;-80
2023/11/17 07:06:16;;;;;;;5.70;3.60;;;;;;;4.51;100.00;95716.98;108683;1267;22580;-80
2023/11/17 07:08:47;;;;;;;4.00;2.50;;;;;;;4.52;100.00;95715.85;108817;1260;24301;-80
2023/11/17 07:11:19;;;;;;;5.30;2.80;;;;;;;4.53;100.00;95720.38;108834;1269;22680;-80
2023/11/17 07:13:50;;;;;;;3.10;1.80;;;;;;;4.55;100.00;95725.30;108830;1272;22533;-80
2023/11/17 07:16:21;;;;;;;2.10;1.40;;;;;;;4.55;100.00;95727.45;108838;1272;22579;-80
2023/11/17 07:18:53;;;;;;;2.30;1.00;;;;;;;4.56;100.00;95726.24;108812;1272;23220;-80
2023/11/17 07:21:26;;;;;;;1.70;1.10;;;;;;;4.57;100.00;95729.17;108789;1272;24618;-80
2023/11/17 07:23:58;;;;;;;1.60;1.10;;;;;;;4.59;100.00;95733.73;108820;1265;22532;-79
2023/11/17 07:26:31;;;;;;;1.50;0.90;;;;;;;4.61;100.00;95731.80;108799;1269;25688;-80
2023/11/17 07:29:06;;;;;;;1.40;1.10;;;;;;;4.62;100.00;95737.52;108818;1272;22544;-80
2023/11/17 07:31:38;;;;;;;2.90;1.30;;;;;;;4.64;100.00;95738.84;108804;1272;22521;-80
2023/11/17 07:34:15;;;;;;;3.70;1.80;;;;;;;4.67;100.00;95741.11;108770;1266;22559;-80
2023/11/17 07:36:47;;;;;;;3.30;2.30;;;;;;;4.72;100.00;95748.09;108854;1267;22525;-80
2023/11/17 07:39:23;;;;;;;3.70;2.50;;;;;;;4.75;100.00;95751.39;108780;1269;24236;-80
2023/11/17 07:41:54;;;;;;;3.10;2.00;;;;;;;4.79;100.00;95748.27;108711;1269;22547;-80
2023/11/17 07:44:25;;;;;;;1.90;1.70;;;;;;;4.81;100.00;95747.67;108736;1269;22615;-80
2023/11/17 07:46:58;;;;;;;3.00;1.50;;;;;;;4.86;100.00;95752.50;108687;1272;22603;-79
2023/11/17 07:49:31;;;;;;;5.40;2.30;;;;;;;4.88;100.00;95757.23;108731;1272;22596;-78
2023/11/17 07:52:03;;;;;;;4.30;2.00;;;;;;;4.87;100.00;95757.23;108756;1272;22534;-79
2023/11/17 07:54:35;;;;;;;2.60;1.40;;;;;;;4.89;100.00;95762.12;108823;1266;22640;-79
2023/11/17 07:57:07;;;;;;;2.80;1.80;;;;;;;4.90;100.00;95767.52;108741;1270;23741;-80
2023/11/17 07:59:38;;;;;;;2.70;1.50;;;;;;;4.93;100.00;95769.52;108704;1272;22540;-79
2023/11/17 08:02:10;;;;;;;2.50;1.20;;;;;;;4.97;100.00;95773.52;108716;1272;22529;-79
2023/11/17 08:04:41;;;;;;;2.30;1.40;;;;;;;5.01;100.00;95772.20;108733;1269;22538;-79
2023/11/17 08:07:12;;;;;;;3.60;1.80;;;;;;;5.05;100.00;95774.81;108727;1272;22521;-79
2023/11/17 08:09:43;;;;;;;3.30;1.70;;;;;;;5.09;100.00;95775.67;108692;1272;22536;-79
2023/11/17 08:12:14;;;;;;;2.50;1.20;;;;;;;5.17;100.00;95774.98;108708;1270;24360;-79
2023/11/17 08:14:45;;;;;;;2.00;1.30;;;;;;;5.22;100.00;95775.46;108686;1272;22671;-79
2023/11/17 08:17:19;;;;;;;2.10;1.00;;;;;;;5.25;100.00;95775.55;108640;1272;23359;-79
2023/11/17 08:19:50;;;;;;;2.00;1.10;;;;;;;5.29;100.00;95779.55;108702;1272;22726;-79
2023/11/17 08:22:21;;;;;;;2.00;1.30;;;;;;;5.32;100.00;95782.27;108668;1266;25239;-79
2023/11/17 08:24:52;;;;;;;1.90;1.00;;;;;;;5.35;100.00;95787.11;108734;1272;22555;-79
2023/11/17 08:27:23;;;;;;;2.40;1.00;;;;;;;5.36;100.00;95789.64;108663;1272;22551;-79
2023/11/17 08:29:58;;;;;;;3.70;1.50;;;;;;;5.35;100.00;95791.89;108719;1263;22517;-79
2023/11/17 08:32:29;;;;;;;2.40;1.60;;;;;;;5.42;100.00;95794.52;108717;1272;22534;-79
2023/11/17 08:35:02;;;;;;;2.80;1.60;;;;;;;5.47;100.00;95795.08;108722;1272;22525;-79
2023/11/17 08:37:33;;;;;;;2.80;1.90;;;;;;;5.51;100.00;95796.19;108683;1270;22539;-79
2023/11/17 08:40:08;;;;;;;2.30;1.60;;;;;;;5.52;100.00;95799.02;108692;1272;22524;-79
2023/11/17 08:42:40;;;;;;;3.90;1.40;;;;;;;5.46;100.00;95801.08;108692;1269;25039;-79
2023/11/17 08:45:12;;;;;;;2.30;1.60;;;;;;;5.37;100.00;95802.35;108718;1272;23716;-79
2023/11/17 08:47:45;;;;;;;3.10;1.70;;;;;;;5.27;100.00;95806.04;108724;1272;22522;-79
2023/11/17 08:50:17;;;;;;;3.30;1.80;;;;;;;5.16;100.00;95806.67;108673;1272;22687;-79
2023/11/17 08:52:49;;;;;;;2.30;1.90;;;;;;;5.08;100.00;95808.20;108704;1272;22682;-79
2023/11/17 08:55:23;;;;;;;3.50;1.90;;;;;;;5.04;100.00;95808.55;108747;1266;24379;-79
2023/11/17 08:57:55;;;;;;;2.80;2.00;;;;;;;5.04;100.00;95813.64;108728;1272;22537;-79
2023/11/17 09:00:26;;;;;;;3.40;2.40;;;;;;;5.06;100.00;95812.54;108692;1267;25418;-79
2023/11/17 09:02:57;;;;;;;3.00;2.20;;;;;;;5.08;100.00;95813.73;108694;1272;22521;-79
2023/11/17 09:05:28;;;;;;;2.40;2.00;;;;;;;5.13;100.00;95812.61;108707;1269;22545;-79
2023/11/17 09:08:00;;;;;;;2.70;1.90;;;;;;;5.15;100.00;95812.34;108699;1270;25370;-79
2023/11/17 09:10:32;;;;;;;5.20;2.40;;;;;;;5.13;100.00;95813.34;108658;1272;22532;-79
2023/11/17 09:13:04;;;;;;;5.40;3.20;;;;;;;5.11;100.00;95816.66;108730;1272;22561;-79
2023/11/17 09:15:38;;;;;;;4.50;3.10;;;;;;;5.09;100.00;95827.44;108706;1267;22528;-79
2023/11/17 09:18:13;;;;;;;4.50;3.10;;;;;;;5.13;100.00;95826.52;108723;1272;22562;-79
2023/11/17 09:20:44;;;;;;;3.50;2.70;;;;;;;5.18;100.00;95826.05;108651;1272;22522;-79
2023/11/17 09:23:15;;;;;;;3.50;2.60;;;;;;;5.21;100.00;95825.91;108587;1272;179635;-79
2023/11/17 09:25:46;;;;;;;4.30;2.80;;;;;;;5.21;100.00;95825.08;108710;1267;25002;-79
2023/11/17 09:28:17;;;;;;;5.00;3.20;;;;;;;5.16;100.00;95828.95;108721;1267;24239;-79
2023/11/17 09:30:49;;;;;;;3.10;2.40;;;;;;;5.12;100.00;95833.11;108697;1272;22537;-79
2023/11/17 09:33:20;;;;;;;4.00;2.70;;;;;;;5.15;100.00;95829.05;108696;1269;22523;-79
2023/11/17 09:35:51;;;;;;;4.90;2.10;;;;;;;5.20;100.00;95830.38;108696;1272;22532;-79
2023/11/17 09:38:22;;;;;;;3.60;2.50;;;;;;;5.15;100.00;95830.42;108745;1272;24337;-79
2023/11/17 09:40:53;;;;;;;4.40;2.70;;;;;;;5.09;100.00;95835.85;108707;1270;30396;-79
2023/11/17 09:43:29;;;;;;;5.80;3.10;;;;;;;5.06;100.00;95832.73;108691;1272;22528;-80
2023/11/17 09:46:02;;;;;;;3.20;2.20;;;;;;;5.04;100.00;95834.34;108707;1272;22532;-79
2023/11/17 09:48:38;;;;;;;4.30;2.60;;;;;;;4.99;100.00;95824.95;108733;1272;22583;-79
2023/11/17 09:51:10;;;;;;;2.60;2.20;;;;;;;4.97;100.00;95829.10;108672;1272;30902;-79
2023/11/17 09:53:43;;;;;;;3.60;2.70;;;;;;;5.00;100.00;95831.83;108744;1270;22710;-79
2023/11/17 09:56:16;;;;;;;3.00;2.20;;;;;;;5.00;100.00;95835.45;108744;1267;22521;-79
2023/11/17 09:58:48;;;;;;;4.00;2.90;;;;;;;5.00;100.00;95838.66;108735;1272;24259;-79
2023/11/17 10:01:22;;;;;;;4.00;2.90;;;;;;;5.00;100.00;95837.97;108693;1266;22526;-79
2023/11/17 10:03:53;;;;;;;6.00;3.90;;;;;;;5.00;100.00;95831.67;108830;1270;22681;-79
2023/11/17 10:06:26;;;;;;;4.40;3.00;;;;;;;4.97;100.00;95832.52;108682;1272;22895;-79
2023/11/17 10:08:59;;;;;;;4.50;2.80;;;;;;;4.93;100.00;95829.58;108714;1272;22710;-79
2023/11/17 10:11:34;;;;;;;4.00;3.20;;;;;;;4.89;100.00;95829.45;108700;1272;24072;-79
2023/11/17 10:14:07;;;;;;;6.70;3.30;;;;;;;4.84;100.00;95831.45;108746;1272;22528;-79
2023/11/17 10:16:38;;;;;;;4.90;3.50;;;;;;;4.81;100.00;95833.65;108680;1272;25599;-79
2023/11/17 10:19:10;;;;;;;3.10;2.70;;;;;;;4.82;100.00;95838.80;108750;1272;25465;-79
2023/11/17 10:21:42;;;;;;;2.90;2.40;;;;;;;4.84;100.00;95841.53;108649;1272;22535;-79
2023/11/17 10:24:17;;;;;;;3.70;2.50;;;;;;;4.89;100.00;95846.41;108738;1271;22528;-79
2023/11/17 10:26:48;;;;;;;3.20;2.50;;;;;;;4.95;100.00;95843.76;108724;1272;22542;-79
2023/11/17 10:29:19;;;;;;;2.80;2.00;;;;;;;4.96;100.00;95848.27;108729;1272;22521;-79
2023/11/17 10:31:56;;;;;;;2.40;1.50;;;;;;;4.96;100.00;95850.79;108675;1272;26867;-79
2023/11/17 10:34:27;;;;;;;1.80;1.30;;;;;;;4.95;100.00;95855.27;108719;1270;22521;-79
2023/11/17 10:37:04;;;;;;;1.30;0.90;;;;;;;4.94;100.00;95856.84;108770;1272;22532;-79
2023/11/17 10:39:51;;;;;;;1.60;1.00;;;;;;;4.88;100.00;95854.77;108681;1272;24589;-78
2023/11/17 10:42:23;;;;;;;2.00;0.90;;;;;;;4.83;100.00;95849.40;108692;1267;22531;-79
2023/11/17 10:44:54;;;;;;;2.10;0.90;;;;;;;4.76;100.00;95856.00;108803;1270;22602;-79
2023/11/17 10:47:26;;;;;;;1.80;1.10;;;;;;;4.72;100.00;95858.09;108718;1270;23700;-79
2023/11/17 10:50:10;;;;;;;1.40;1.00;;;;;;;4.68;100.00;95856.63;108740;1270;22535;-79
2023/11/17 10:52:42;;;;;;;1.80;0.90;;;;;;;4.68;100.00;95855.79;108735;1272;22551;-79
2023/11/17 10:55:14;;;;;;;1.30;1.00;;;;;;;4.63;100.00;95857.60;108710;1272;22540;-79
2023/11/17 10:58:06;;;;;;;2.00;1.20;;;;;;;4.59;100.00;95859.64;108748;1272;22528;-79
2023/11/17 11:00:38;;;;;;;2.80;1.60;;;;;;;4.58;100.00;95866.09;108724;1267;22854;-79
2023/11/17 11:03:10;;;;;;;2.90;1.50;;;;;;;4.57;100.00;95871.65;108711;1272;22521;-79
2023/11/17 11:05:43;;;;;;;1.40;1.30;;;;;;;4.59;100.00;95872.75;108733;1267;22719;-79
2023/11/17 11:08:18;;;;;;;1.90;1.40;;;;;;;4.59;100.00;95877.39;108775;1269;22531;-79
2023/11/17 11:10:54;;;;;;;2.70;1.90;;;;;;;4.59;100.00;95881.02;108705;1267;32980;-79
2023/11/17 11:13:30;;;;;;;2.10;1.30;;;;;;;4.58;100.00;95877.17;108712;1272;22539;-79
2023/11/17 11:16:10;;;;;;;4.80;2.40;;;;;;;4.58;100.00;95884.15;108775;1267;22542;-79
2023/11/17 11:18:47;;;;;;;2.50;1.70;;;;;;;4.58;100.00;95884.41;108700;1272;22574;-79
2023/11/17 11:21:18;;;;;;;2.50;1.60;;;;;;;4.59;100.00;95881.42;108648;1272;24311;-79
2023/11/17 11:23:55;;;;;;;3.10;1.80;;;;;;;4.56;100.00;95887.56;108714;1267;22604;-79
2023/11/17 11:26:27;;;;;;;2.50;1.90;;;;;;;4.57;100.00;95893.29;108705;1272;22545;-79
2023/11/17 11:28:59;;;;;;;2.50;2.00;;;;;;;4.58;100.00;95894.48;108742;1272;25293;-79
2023/11/17 11:31:32;;;;;;;3.00;2.30;;;;;;;4.57;100.00;95901.36;108665;1272;26812;-79
2023/11/17 11:34:06;;;;;;;3.40;2.60;;;;;;;4.56;100.00;95901.27;108707;1267;25545;-79
2023/11/17 11:36:39;;;;;;;5.50;3.20;;;;;;;4.55;100.00;95907.45;108727;1272;23797;-79
2023/11/17 11:39:10;;;;;;;2.90;2.40;;;;;;;4.55;100.00;95915.02;108754;1267;22561;-79
2023/11/17 11:41:41;;;;;;;3.80;2.70;;;;;;;4.57;100.00;95922.10;108705;1272;23062;-79
2023/11/17 11:44:12;;;;;;;3.80;2.20;;;;;;;4.56;100.00;95919.52;108754;1272;25467;-79
2023/11/17 11:46:44;;;;;;;3.00;2.00;;;;;;;4.55;100.00;95920.05;108739;1264;22650;-79
2023/11/17 11:49:19;;;;;;;5.20;3.00;;;;;;;4.58;100.00;95921.84;108751;1270;25255;-79
2023/11/17 11:51:55;;;;;;;3.40;3.10;;;;;;;4.58;100.00;95929.56;108724;1267;22558;-79